Time;durP1;ratioP1;P1;durP2;ratioP2;P2;SDS_P1;SDS_P2;PMS_P1;PMS_P2;Temp;Humidity;BMP_temperature;BMP_pressure;BME280_temperature;BME280_humidity;BME280_pressure;Samples;Min_cycle;Max_cycle;Signal;HPM_P1;HPM_P2
2023/06/13 00:00:46;;;;;;;12.77;3.93;;;8.70;99.90;;;;;;4369916;28;658547;-73
2023/06/13 00:03:33;;;;;;;9.75;4.68;;;8.70;99.90;;;;;;4374419;28;658167;-74
2023/06/13 00:06:20;;;;;;;11.93;5.07;;;8.60;99.90;;;;;;4359962;28;657190;-73
2023/06/13 00:09:08;;;;;;;15.93;4.10;;;8.50;99.90;;;;;;4366424;28;658305;-74
2023/06/13 00:11:56;;;;;;;8.23;4.17;;;8.50;99.90;;;;;;4395792;27;657531;-73
2023/06/13 00:14:45;;;;;;;7.50;3.70;;;8.40;99.90;;;;;;4370503;28;657534;-74
2023/06/13 00:17:33;;;;;;;8.77;4.03;;;8.40;99.90;;;;;;4361887;28;657287;-74
2023/06/13 00:20:21;;;;;;;8.90;4.10;;;8.30;99.90;;;;;;4373417;27;656618;-74
2023/06/13 00:23:08;;;;;;;7.70;3.87;;;8.30;99.90;;;;;;4403850;28;657676;-74
2023/06/13 00:25:56;;;;;;;7.13;4.13;;;8.20;99.90;;;;;;4354530;28;656757;-74
2023/06/13 00:28:43;;;;;;;14.05;4.03;;;8.10;99.90;;;;;;4414185;28;657613;-74
2023/06/13 00:31:32;;;;;;;9.67;4.10;;;8.00;99.90;;;;;;4355946;28;657652;-74
2023/06/13 00:34:20;;;;;;;8.63;4.20;;;7.80;99.90;;;;;;4380621;28;656721;-74
2023/06/13 00:37:09;;;;;;;15.67;4.50;;;7.70;99.90;;;;;;4348400;28;657010;-73
2023/06/13 00:39:57;;;;;;;9.17;3.80;;;7.60;99.90;;;;;;4356858;28;657646;-74
2023/06/13 00:42:44;;;;;;;7.60;4.17;;;7.50;99.90;;;;;;4377048;28;656893;-73
2023/06/13 00:45:33;;;;;;;12.37;4.70;;;7.50;99.90;;;;;;4361293;28;656314;-74
2023/06/13 00:48:22;;;;;;;9.20;4.73;;;7.40;99.90;;;;;;4372017;28;657551;-73
2023/06/13 00:51:10;;;;;;;12.03;4.53;;;7.40;99.90;;;;;;4395590;28;656820;-74
2023/06/13 00:53:58;;;;;;;7.83;4.00;;;7.30;99.90;;;;;;4357352;28;657574;-74
2023/06/13 00:56:45;;;;;;;10.07;4.38;;;7.30;99.90;;;;;;4363402;27;656908;-74
2023/06/13 00:59:33;;;;;;;7.03;3.93;;;7.30;99.90;;;;;;4388446;27;659209;-73
2023/06/13 01:02:23;;;;;;;6.28;3.72;;;7.30;99.90;;;;;;4362530;28;656408;-73
2023/06/13 01:05:12;;;;;;;8.07;4.23;;;7.30;99.90;;;;;;4368429;27;656404;-74
2023/06/13 01:08:00;;;;;;;6.10;3.43;;;7.00;99.90;;;;;;4403127;27;656735;-74
2023/06/13 01:10:49;;;;;;;9.03;4.07;;;6.90;99.90;;;;;;4359806;27;657979;-74
2023/06/13 01:13:39;;;;;;;9.23;3.90;;;6.90;99.90;;;;;;4365011;28;656249;-74
2023/06/13 01:16:33;;;;;;;4.83;3.03;;;6.80;99.90;;;;;;4390981;27;657481;-74
2023/06/13 01:19:25;;;;;;;10.15;3.67;;;6.80;99.90;;;;;;4334792;27;656878;-73
2023/06/13 01:22:17;;;;;;;8.57;3.57;;;6.70;99.90;;;;;;4364341;28;658722;-73
2023/06/13 01:25:08;;;;;;;5.73;3.77;;;6.70;99.90;;;;;;4357757;28;656593;-74
2023/06/13 01:27:57;;;;;;;9.45;3.95;;;6.60;99.90;;;;;;4366573;27;656727;-73
2023/06/13 01:30:44;;;;;;;7.20;4.00;;;6.60;99.90;;;;;;4403032;27;656050;-74
2023/06/13 01:33:32;;;;;;;7.03;3.67;;;6.50;99.90;;;;;;4371716;28;657006;-74
2023/06/13 01:36:19;;;;;;;9.47;3.90;;;6.50;99.90;;;;;;4404401;27;656565;-74
2023/06/13 01:39:08;;;;;;;8.10;4.28;;;6.50;99.90;;;;;;4395634;27;657285;-74
2023/06/13 01:41:56;;;;;;;5.97;3.50;;;6.50;99.90;;;;;;4358248;28;656484;-74
2023/06/13 01:44:44;;;;;;;6.77;3.27;;;6.50;99.90;;;;;;4418389;27;657116;-75
2023/06/13 01:47:36;;;;;;;7.90;4.10;;;6.50;99.90;;;;;;4366277;28;656204;-75
2023/06/13 01:50:27;;;;;;;6.53;3.57;;;6.60;99.90;;;;;;4385330;27;657519;-74
2023/06/13 01:53:19;;;;;;;12.10;3.90;;;6.60;99.90;;;;;;4352434;28;657238;-75
2023/06/13 01:56:09;;;;;;;6.73;3.87;;;6.60;99.90;;;;;;4328287;28;657916;-74
2023/06/13 01:58:57;;;;;;;5.47;3.50;;;6.60;99.90;;;;;;4366948;28;657265;-74
2023/06/13 02:01:46;;;;;;;8.10;3.63;;;6.60;99.90;;;;;;4379059;28;657567;-75
2023/06/13 02:04:39;;;;;;;5.70;3.57;;;6.60;99.90;;;;;;4354940;28;657404;-74
2023/06/13 02:07:27;;;;;;;7.07;3.47;;;6.60;99.90;;;;;;4360342;28;656993;-75
2023/06/13 02:10:14;;;;;;;5.93;3.40;;;6.60;99.90;;;;;;4369444;28;656966;-75
2023/06/13 02:13:02;;;;;;;8.17;3.47;;;6.60;99.90;;;;;;4380361;28;657759;-75
2023/06/13 02:15:49;;;;;;;5.70;3.07;;;6.60;99.90;;;;;;4386003;28;656765;-75
2023/06/13 02:18:43;;;;;;;5.23;3.10;;;6.50;99.90;;;;;;4348312;28;656532;-74
2023/06/13 02:21:34;;;;;;;8.63;3.20;;;6.50;99.90;;;;;;4223122;27;656738;-74
2023/06/13 02:24:25;;;;;;;4.60;3.03;;;6.50;99.90;;;;;;4219292;28;657246;-73
2023/06/13 02:27:16;;;;;;;6.90;3.17;;;6.40;99.90;;;;;;4333369;28;657128;-74
2023/06/13 02:30:09;;;;;;;5.17;3.20;;;6.40;99.90;;;;;;4355438;28;658339;-75
2023/06/13 02:33:01;;;;;;;6.33;2.87;;;6.30;99.90;;;;;;4378078;27;657525;-75
2023/06/13 02:35:54;;;;;;;6.50;3.43;;;6.30;99.90;;;;;;4372468;27;657555;-75
2023/06/13 02:38:46;;;;;;;6.10;3.27;;;6.30;99.90;;;;;;4340742;28;657372;-75
2023/06/13 02:41:38;;;;;;;7.00;3.50;;;6.40;99.90;;;;;;4353114;27;658488;-74
2023/06/13 02:44:30;;;;;;;9.77;3.53;;;6.30;99.90;;;;;;4342573;28;656788;-74
2023/06/13 02:47:22;;;;;;;5.50;3.57;;;6.30;99.90;;;;;;4362172;27;657416;-75
2023/06/13 02:50:10;;;;;;;8.23;3.33;;;6.30;99.90;;;;;;4353025;27;657230;-75
2023/06/13 02:52:59;;;;;;;7.17;3.40;;;6.30;99.90;;;;;;4357335;28;657148;-75
2023/06/13 02:55:46;;;;;;;6.80;3.70;;;6.40;99.90;;;;;;4360785;28;656701;-75
2023/06/13 02:58:33;;;;;;;6.80;3.33;;;6.30;99.90;;;;;;4383442;28;658066;-75
2023/06/13 03:01:20;;;;;;;6.70;3.70;;;6.40;99.90;;;;;;4363457;28;657231;-74
2023/06/13 03:04:08;;;;;;;8.10;3.90;;;6.40;99.90;;;;;;4388324;27;657571;-76
2023/06/13 03:06:55;;;;;;;6.07;3.57;;;6.40;99.90;;;;;;4364631;28;656500;-74
2023/06/13 03:09:44;;;;;;;5.73;3.33;;;6.40;99.90;;;;;;4379004;27;657748;-75
2023/06/13 03:12:31;;;;;;;7.73;3.50;;;6.30;99.90;;;;;;4355629;28;656388;-75
2023/06/13 03:15:18;;;;;;;7.10;3.40;;;6.20;99.90;;;;;;4375085;28;657537;-76
2023/06/13 03:18:06;;;;;;;12.17;3.40;;;6.20;99.90;;;;;;4361225;28;657549;-76
2023/06/13 03:20:53;;;;;;;12.13;3.83;;;6.20;99.90;;;;;;4376537;28;658709;-76
2023/06/13 03:23:41;;;;;;;6.07;3.67;;;6.30;99.90;;;;;;4358638;28;658246;-74
2023/06/13 03:26:38;;;;;;;5.67;3.20;;;6.30;99.90;;;;;;4385329;27;657821;-75
2023/06/13 03:29:25;;;;;;;6.10;3.50;;;6.40;99.90;;;;;;4376042;28;656617;-74
2023/06/13 03:32:12;;;;;;;5.70;4.10;;;6.50;99.90;;;;;;4377056;28;657167;-74
2023/06/13 03:35:01;;;;;;;8.30;3.50;;;6.50;99.90;;;;;;4379805;28;656288;-74
2023/06/13 03:37:48;;;;;;;5.43;3.07;;;6.60;99.90;;;;;;4384834;28;657750;-76
2023/06/13 03:40:35;;;;;;;4.77;3.20;;;6.60;99.90;;;;;;4379871;27;657954;-75
2023/06/13 03:43:25;;;;;;;6.17;3.90;;;6.60;99.90;;;;;;4383942;28;657145;-75
2023/06/13 03:46:12;;;;;;;6.97;3.37;;;6.60;99.90;;;;;;4375716;27;657392;-75
2023/06/13 03:48:59;;;;;;;6.57;3.63;;;6.70;99.90;;;;;;4389732;27;656232;-75
2023/06/13 03:51:46;;;;;;;6.40;3.83;;;6.80;99.90;;;;;;4355479;28;655955;-76
2023/06/13 03:54:34;;;;;;;6.33;3.73;;;7.00;99.90;;;;;;4393851;27;657469;-74
2023/06/13 03:57:21;;;;;;;7.10;3.88;;;7.20;99.90;;;;;;4370719;27;657173;-75
2023/06/13 04:00:11;;;;;;;7.57;3.77;;;7.30;99.90;;;;;;4378855;28;657650;-76
2023/06/13 04:03:00;;;;;;;8.33;4.30;;;7.40;99.90;;;;;;4369415;27;656755;-76
2023/06/13 04:05:47;;;;;;;6.97;3.93;;;7.60;99.90;;;;;;4358797;28;657229;-74
2023/06/13 04:08:35;;;;;;;6.77;3.70;;;7.70;99.90;;;;;;4391787;27;656788;-76
2023/06/13 04:11:23;;;;;;;8.20;4.30;;;7.80;99.90;;;;;;4358186;27;657047;-76
2023/06/13 04:14:10;;;;;;;7.00;3.90;;;8.00;99.90;;;;;;4387329;27;657243;-74
2023/06/13 04:16:59;;;;;;;11.97;3.90;;;8.10;99.90;;;;;;4384125;28;657034;-75
2023/06/13 04:19:48;;;;;;;7.47;3.87;;;8.20;99.90;;;;;;4364846;28;658321;-76
2023/06/13 04:22:35;;;;;;;5.73;3.90;;;8.40;99.90;;;;;;4371316;27;657230;-75
2023/06/13 04:25:23;;;;;;;10.63;4.00;;;8.50;99.90;;;;;;4384717;27;657673;-75
2023/06/13 04:28:12;;;;;;;6.93;3.93;;;8.70;99.90;;;;;;4378609;27;657588;-74
2023/06/13 04:31:03;;;;;;;7.67;4.00;;;8.80;99.90;;;;;;4386653;27;657080;-75
2023/06/13 04:33:55;;;;;;;5.30;3.67;;;9.00;99.90;;;;;;4384313;27;657104;-74
2023/06/13 04:36:44;;;;;;;6.83;3.80;;;9.10;99.90;;;;;;4357597;28;658065;-75
2023/06/13 04:39:31;;;;;;;9.93;3.70;;;9.30;99.90;;;;;;4360187;28;657161;-75
2023/06/13 04:42:24;;;;;;;6.20;3.57;;;9.40;99.90;;;;;;4388515;28;656850;-75
2023/06/13 04:45:11;;;;;;;5.50;3.13;;;9.50;99.90;;;;;;4365970;28;656648;-77
2023/06/13 04:48:01;;;;;;;7.17;3.63;;;9.70;99.90;;;;;;4393718;27;656682;-76
2023/06/13 04:50:49;;;;;;;6.80;3.90;;;9.80;99.90;;;;;;4361583;28;657395;-76
2023/06/13 04:53:37;;;;;;;7.13;4.00;;;9.90;99.90;;;;;;4359232;28;657748;-75
2023/06/13 04:56:26;;;;;;;4.97;3.30;;;10.10;99.90;;;;;;4385245;27;656550;-75
2023/06/13 04:59:13;;;;;;;5.20;3.60;;;10.20;99.90;;;;;;4372358;28;658460;-75
2023/06/13 05:02:00;;;;;;;7.77;3.50;;;10.30;99.90;;;;;;4392788;27;658133;-76
2023/06/13 05:04:48;;;;;;;6.70;3.83;;;10.40;99.90;;;;;;4384742;28;658558;-76
2023/06/13 05:07:39;;;;;;;6.03;3.53;;;10.50;99.90;;;;;;4361957;28;658726;-74
2023/06/13 05:10:26;;;;;;;7.10;3.67;;;10.70;99.90;;;;;;4376519;27;658190;-76
2023/06/13 05:13:13;;;;;;;5.97;3.57;;;10.80;99.90;;;;;;4374366;28;659231;-76
2023/06/13 05:16:00;;;;;;;6.17;3.60;;;10.90;99.90;;;;;;4355708;28;657459;-75
2023/06/13 05:18:49;;;;;;;8.93;4.00;;;10.90;99.90;;;;;;4389474;27;658503;-76
2023/06/13 05:21:36;;;;;;;11.20;3.63;;;11.00;99.90;;;;;;4361605;28;658539;-76
2023/06/13 05:24:25;;;;;;;7.47;3.20;;;11.10;99.90;;;;;;4379614;28;659327;-76
2023/06/13 05:27:13;;;;;;;5.40;3.60;;;11.20;99.90;;;;;;4357790;28;658284;-75
2023/06/13 05:30:00;;;;;;;11.00;3.60;;;11.30;99.90;;;;;;4360350;28;658155;-73
2023/06/13 05:32:47;;;;;;;5.47;3.37;;;11.50;99.90;;;;;;4373387;28;659157;-74
2023/06/13 05:35:34;;;;;;;7.97;3.53;;;11.60;99.90;;;;;;4381494;28;658505;-76
2023/06/13 05:38:22;;;;;;;6.73;3.60;;;11.70;99.90;;;;;;4374249;27;658664;-75
2023/06/13 05:41:10;;;;;;;4.53;2.80;;;11.80;99.90;;;;;;4384538;28;657252;-75
2023/06/13 05:43:58;;;;;;;6.13;3.30;;;12.00;99.90;;;;;;4354218;28;658740;-75
2023/06/13 05:46:45;;;;;;;4.60;2.80;;;12.10;99.90;;;;;;4385331;28;657597;-74
2023/06/13 05:49:33;;;;;;;7.87;2.73;;;12.20;99.90;;;;;;4389933;27;658284;-74
2023/06/13 05:52:20;;;;;;;8.57;3.03;;;12.30;99.90;;;;;;4385573;27;657948;-74
2023/06/13 05:55:08;;;;;;;13.07;3.10;;;12.50;99.90;;;;;;4396928;27;659050;-74
2023/06/13 05:57:57;;;;;;;6.57;2.90;;;12.60;99.90;;;;;;4360650;28;658172;-74
2023/06/13 06:00:45;;;;;;;5.23;2.70;;;12.80;99.90;;;;;;4410744;27;658231;-75
2023/06/13 06:03:33;;;;;;;4.03;2.53;;;12.80;99.90;;;;;;4361060;28;658352;-74
2023/06/13 06:06:20;;;;;;;5.73;3.20;;;12.90;99.90;;;;;;4361189;27;657515;-74
2023/06/13 06:09:08;;;;;;;8.37;2.83;;;13.00;99.90;;;;;;4382741;28;657641;-74
2023/06/13 06:11:55;;;;;;;7.10;2.50;;;13.10;99.90;;;;;;4365812;27;657710;-74
2023/06/13 06:14:44;;;;;;;11.47;2.80;;;13.20;99.90;;;;;;4382724;28;658534;-74
2023/06/13 06:17:31;;;;;;;6.55;2.53;;;13.50;99.90;;;;;;4375897;27;659197;-75
2023/06/13 06:20:18;;;;;;;5.80;2.43;;;13.50;99.90;;;;;;4375512;28;658656;-74
2023/06/13 06:23:06;;;;;;;11.20;2.70;;;13.40;99.90;;;;;;4360188;28;658273;-75
2023/06/13 06:25:53;;;;;;;4.90;2.70;;;13.40;99.90;;;;;;4394595;27;659569;-76
2023/06/13 06:28:40;;;;;;;4.93;2.70;;;13.80;99.90;;;;;;4372568;27;658419;-75
2023/06/13 06:31:29;;;;;;;11.67;2.60;;;14.10;99.90;;;;;;4377843;27;658124;-74
2023/06/13 06:34:16;;;;;;;5.73;2.57;;;14.20;99.90;;;;;;4383423;27;658735;-74
2023/06/13 06:37:04;;;;;;;8.93;2.97;;;14.20;99.90;;;;;;4382835;27;658407;-74
2023/06/13 06:39:51;;;;;;;7.33;2.80;;;14.40;99.90;;;;;;4361816;27;657719;-75
2023/06/13 06:42:39;;;;;;;13.57;4.00;;;14.60;99.90;;;;;;4378883;28;658247;-74
2023/06/13 06:45:26;;;;;;;6.90;3.50;;;14.90;99.90;;;;;;4357514;28;659179;-74
2023/06/13 06:48:15;;;;;;;6.13;3.10;;;15.00;99.90;;;;;;4396259;28;658489;-74
2023/06/13 06:51:02;;;;;;;7.97;3.40;;;14.80;99.90;;;;;;4362284;28;658472;-73
2023/06/13 06:53:50;;;;;;;5.87;3.17;;;14.80;99.90;;;;;;4397324;27;657881;-74
2023/06/13 06:56:37;;;;;;;5.23;3.40;;;15.20;99.90;;;;;;4357772;28;658217;-73
2023/06/13 06:59:24;;;;;;;7.07;4.10;;;15.60;99.90;;;;;;4378287;28;658333;-74
2023/06/13 07:02:12;;;;;;;5.97;3.70;;;15.50;99.90;;;;;;4375571;27;658268;-74
2023/06/13 07:05:00;;;;;;;6.43;3.77;;;15.60;99.90;;;;;;4377968;28;657162;-74
2023/06/13 07:07:47;;;;;;;8.40;3.53;;;15.90;99.90;;;;;;4356134;28;657860;-74
2023/06/13 07:10:35;;;;;;;7.13;3.37;;;16.30;99.90;;;;;;4370755;28;658097;-74
2023/06/13 07:13:22;;;;;;;6.20;4.00;;;16.60;99.90;;;;;;4393816;28;658081;-74
2023/06/13 07:16:10;;;;;;;5.13;3.37;;;16.70;99.90;;;;;;4380936;28;657979;-74
2023/06/13 07:18:57;;;;;;;7.13;3.20;;;17.10;99.90;;;;;;4387346;28;658233;-74
2023/06/13 07:21:46;;;;;;;4.97;2.40;;;17.30;99.90;;;;;;4380181;28;658521;-74
2023/06/13 07:24:33;;;;;;;4.93;2.83;;;17.20;99.90;;;;;;4358998;28;658422;-74
2023/06/13 07:27:20;;;;;;;5.27;2.57;;;16.60;99.90;;;;;;4364824;28;657795;-74
2023/06/13 07:30:09;;;;;;;2.93;2.03;;;16.00;99.90;;;;;;4379155;28;659165;-73
2023/06/13 07:32:56;;;;;;;3.90;2.20;;;15.60;99.90;;;;;;4367836;28;658516;-74
2023/06/13 07:35:43;;;;;;;2.40;2.03;;;15.40;99.90;;;;;;4387902;27;658170;-74
2023/06/13 07:38:32;;;;;;;6.70;2.10;;;15.60;99.90;;;;;;4365353;27;657561;-74
2023/06/13 07:41:19;;;;;;;5.33;2.10;;;15.60;99.90;;;;;;4390695;27;659110;-74
2023/06/13 07:44:06;;;;;;;3.63;2.00;;;15.90;99.90;;;;;;4354555;28;657692;-74
2023/06/13 07:46:54;;;;;;;4.87;1.80;;;16.30;99.90;;;;;;4391936;27;657609;-75
2023/06/13 07:49:41;;;;;;;3.83;1.93;;;16.20;99.90;;;;;;4355337;28;658253;-74
2023/06/13 07:52:28;;;;;;;6.37;1.50;;;15.90;99.90;;;;;;4399635;27;657965;-74
2023/06/13 07:55:17;;;;;;;2.07;1.60;;;16.30;99.90;;;;;;4360285;28;657740;-74
2023/06/13 07:58:04;;;;;;;2.10;1.50;;;16.90;99.90;;;;;;4381723;28;657932;-74
2023/06/13 08:00:51;;;;;;;5.10;1.57;;;17.50;99.90;;;;;;4378270;27;658119;-74
2023/06/13 08:03:38;;;;;;;2.00;1.40;;;17.80;99.90;;;;;;4382983;28;657909;-74
2023/06/13 08:06:26;;;;;;;2.80;1.50;;;17.50;99.90;;;;;;4375204;27;658100;-74
2023/06/13 08:09:13;;;;;;;2.43;1.40;;;17.50;99.90;;;;;;4383234;28;658049;-74
2023/06/13 08:12:02;;;;;;;2.23;1.43;;;17.70;99.90;;;;;;4381387;27;658313;-74
2023/06/13 08:14:49;;;;;;;3.07;1.40;;;17.60;99.90;;;;;;4383199;28;657631;-74
2023/06/13 08:17:37;;;;;;;2.90;1.50;;;17.90;99.90;;;;;;4382442;27;658669;-74
2023/06/13 08:20:25;;;;;;;4.47;1.30;;;18.30;99.90;;;;;;4379296;27;657827;-74
2023/06/13 08:23:12;;;;;;;2.30;1.60;;;18.30;95.30;;;;;;4354990;28;658758;-74
2023/06/13 08:25:59;;;;;;;2.23;1.40;;;18.10;95.00;;;;;;4376304;28;657854;-74
2023/06/13 08:28:48;;;;;;;1.87;1.30;;;18.30;96.30;;;;;;4250058;27;657552;-73
2023/06/13 08:31:36;;;;;;;2.07;1.53;;;18.30;96.80;;;;;;4240352;27;658057;-73
2023/06/13 08:34:23;;;;;;;3.87;1.67;;;18.30;95.50;;;;;;4266214;27;657718;-74
2023/06/13 08:37:10;;;;;;;3.90;1.33;;;18.80;95.30;;;;;;4360758;28;658043;-74
2023/06/13 08:39:57;;;;;;;2.00;1.60;;;19.00;93.30;;;;;;4383543;28;657479;-74
2023/06/13 08:42:45;;;;;;;2.67;1.60;;;19.40;92.70;;;;;;4380986;28;657980;-74
2023/06/13 08:45:33;;;;;;;1.67;1.43;;;19.40;87.50;;;;;;4371016;27;658327;-74
2023/06/13 08:48:21;;;;;;;4.17;1.70;;;19.10;89.90;;;;;;4357705;28;657514;-73
2023/06/13 08:51:13;;;;;;;2.87;1.40;;;19.50;89.90;;;;;;4396137;27;658779;-74
2023/06/13 08:54:02;;;;;;;4.10;1.40;;;19.90;83.30;;;;;;4338792;28;658214;-74
2023/06/13 08:56:49;;;;;;;3.50;1.77;;;20.20;83.40;;;;;;4378237;28;657471;-74
2023/06/13 08:59:37;;;;;;;2.50;1.60;;;20.50;79.10;;;;;;4363645;28;659406;-73
2023/06/13 09:02:26;;;;;;;2.83;1.70;;;20.70;77.90;;;;;;4382945;28;658486;-74
2023/06/13 09:05:15;;;;;;;2.73;1.73;;;21.00;75.70;;;;;;4373152;28;658477;-74
2023/06/13 09:08:02;;;;;;;4.17;1.97;;;20.70;68.30;;;;;;4382735;27;658244;-74
2023/06/13 09:10:49;;;;;;;2.33;1.60;;;20.40;74.10;;;;;;4393633;27;657412;-74
2023/06/13 09:13:37;;;;;;;5.57;1.70;;;20.30;71.40;;;;;;4373279;27;657608;-74
2023/06/13 09:16:24;;;;;;;2.20;1.57;;;20.10;74.00;;;;;;4390097;28;658067;-73
2023/06/13 09:19:13;;;;;;;6.43;2.00;;;19.90;73.60;;;;;;4376888;27;658142;-74
2023/06/13 09:22:01;;;;;;;2.37;1.70;;;20.10;74.50;;;;;;4359020;28;659647;-74
2023/06/13 09:24:48;;;;;;;2.27;1.60;;;19.60;73.10;;;;;;4380546;28;658709;-73
2023/06/13 09:27:35;;;;;;;2.80;1.50;;;19.30;77.80;;;;;;4362438;28;657899;-74
2023/06/13 09:30:22;;;;;;;4.13;1.40;;;19.20;77.70;;;;;;4396499;27;658300;-74
2023/06/13 09:33:10;;;;;;;3.57;2.20;;;19.30;76.80;;;;;;4391411;28;657565;-74
2023/06/13 09:35:59;;;;;;;2.80;1.80;;;19.50;75.20;;;;;;4399330;27;658584;-74
2023/06/13 09:38:48;;;;;;;3.97;1.40;;;19.50;75.00;;;;;;4363965;28;658218;-74
2023/06/13 09:41:35;;;;;;;3.43;1.50;;;19.70;79.50;;;;;;4369525;28;658217;-74
2023/06/13 09:44:24;;;;;;;2.33;1.60;;;19.70;74.30;;;;;;4378190;28;658579;-74
2023/06/13 09:47:12;;;;;;;2.07;1.60;;;19.30;76.20;;;;;;4365017;28;658408;-73
2023/06/13 09:50:00;;;;;;;3.10;1.60;;;19.10;77.20;;;;;;4398492;27;657295;-75
2023/06/13 09:52:48;;;;;;;1.60;1.50;;;19.10;75.80;;;;;;4357815;28;658987;-74
2023/06/13 09:55:36;;;;;;;4.30;1.83;;;19.00;75.60;;;;;;4357953;28;657254;-73
2023/06/13 09:58:23;;;;;;;4.47;1.80;;;18.50;74.70;;;;;;4381931;28;658197;-74
2023/06/13 10:01:15;;;;;;;1.30;1.20;;;18.50;75.90;;;;;;4367697;28;658254;-73
2023/06/13 10:04:02;;;;;;;2.53;1.50;;;18.70;79.00;;;;;;4374309;28;658385;-74
2023/06/13 10:06:50;;;;;;;2.07;1.60;;;18.60;79.70;;;;;;4387224;27;657409;-74
2023/06/13 10:09:39;;;;;;;2.37;1.60;;;19.10;81.10;;;;;;4357935;27;658580;-74
2023/06/13 10:12:26;;;;;;;4.43;1.63;;;19.90;79.10;;;;;;4362670;28;657559;-74
2023/06/13 10:15:14;;;;;;;4.60;1.40;;;20.10;72.40;;;;;;4380499;28;657974;-73
2023/06/13 10:18:03;;;;;;;1.60;1.37;;;20.20;70.30;;;;;;4365900;28;657935;-73
2023/06/13 10:20:50;;;;;;;1.88;1.50;;;20.60;69.90;;;;;;4364042;27;657513;-73
2023/06/13 10:23:41;;;;;;;2.17;1.60;;;20.60;67.40;;;;;;4392883;28;658484;-73
2023/06/13 10:26:34;;;;;;;2.20;1.20;;;20.20;66.80;;;;;;4354335;28;658863;-73
2023/06/13 10:29:58;;;;;;;2.20;1.50;;;19.80;69.90;;;;;;4327576;28;658419;-74
2023/06/13 10:33:00;;;;;;;5.90;1.43;;;20.30;71.90;;;;;;4350184;27;657942;-73
2023/06/13 10:36:00;;;;;;;7.33;1.70;;;20.70;69.30;;;;;;4367800;27;658501;-73
2023/06/13 10:39:19;;;;;;;3.87;1.50;;;20.60;64.10;;;;;;4344361;27;659157;-73
2023/06/13 10:42:18;;;;;;;1.73;1.33;;;19.90;63.90;;;;;;4363212;28;657648;-73
2023/06/13 10:45:07;;;;;;;2.47;1.70;;;20.40;66.30;;;;;;4352267;27;658033;-73
2023/06/13 10:47:55;;;;;;;2.30;1.30;;;20.80;65.80;;;;;;4380150;28;658225;-73
2023/06/13 10:50:43;;;;;;;1.90;1.50;;;20.90;67.30;;;;;;4395212;28;658372;-74
2023/06/13 10:53:31;;;;;;;2.33;1.40;;;20.80;64.50;;;;;;4358759;28;658092;-74
2023/06/13 10:56:18;;;;;;;1.98;1.10;;;20.90;63.00;;;;;;4385454;28;658542;-74
2023/06/13 10:59:08;;;;;;;2.30;1.37;;;20.70;70.70;;;;;;4379744;27;658061;-74
2023/06/13 11:01:55;;;;;;;2.40;1.50;;;21.40;66.10;;;;;;4366473;27;657892;-74
2023/06/13 11:04:47;;;;;;;4.80;1.50;;;22.10;64.70;;;;;;4378367;28;657903;-73
2023/06/13 11:07:35;;;;;;;4.80;1.70;;;22.10;58.80;;;;;;4357989;28;658183;-74
2023/06/13 11:10:24;;;;;;;3.33;1.47;;;21.60;57.90;;;;;;4350786;28;658673;-74
2023/06/13 11:13:17;;;;;;;4.27;1.50;;;21.00;59.60;;;;;;4358654;28;657659;-73
2023/06/13 11:16:35;;;;;;;2.60;1.53;;;20.40;59.60;;;;;;4355828;28;657754;-74
2023/06/13 11:19:23;;;;;;;3.87;1.53;;;20.20;61.30;;;;;;4348368;27;658227;-74
2023/06/13 11:22:14;;;;;;;5.10;1.37;;;19.80;64.90;;;;;;4361598;28;658175;-73
2023/06/13 11:25:01;;;;;;;3.43;1.20;;;19.30;67.90;;;;;;4364435;28;657674;-74
2023/06/13 11:27:48;;;;;;;3.87;1.50;;;19.50;70.00;;;;;;4376227;28;658442;-74
2023/06/13 11:30:35;;;;;;;1.80;1.40;;;19.50;70.10;;;;;;4358428;28;657628;-73
2023/06/13 11:33:24;;;;;;;2.17;1.50;;;19.40;70.60;;;;;;4384864;28;658750;-73
2023/06/13 11:36:11;;;;;;;1.57;1.40;;;19.20;69.30;;;;;;4362760;27;659713;-74
2023/06/13 11:39:02;;;;;;;3.08;1.60;;;19.10;68.90;;;;;;4375987;28;659104;-74
2023/06/13 11:41:49;;;;;;;3.67;1.67;;;19.40;74.00;;;;;;4356936;28;657957;-74
2023/06/13 11:44:37;;;;;;;1.83;1.20;;;19.90;72.30;;;;;;4355469;28;658006;-73
2023/06/13 11:47:24;;;;;;;4.90;1.40;;;20.50;69.90;;;;;;4379300;28;657334;-74
2023/06/13 11:50:13;;;;;;;2.40;1.40;;;21.00;64.50;;;;;;4359030;28;658316;-74
2023/06/13 11:53:04;;;;;;;3.93;1.50;;;20.90;62.80;;;;;;4380572;27;658137;-73
2023/06/13 11:55:57;;;;;;;2.13;1.40;;;20.90;65.20;;;;;;4372204;28;657877;-73
2023/06/13 11:58:45;;;;;;;3.80;1.57;;;20.90;65.20;;;;;;4355179;28;657805;-74
2023/06/13 12:01:32;;;;;;;4.00;1.73;;;20.80;63.40;;;;;;4347230;28;658689;-73
2023/06/13 12:04:19;;;;;;;2.93;1.20;;;20.40;63.40;;;;;;4381580;28;658180;-73
2023/06/13 12:07:08;;;;;;;3.03;1.60;;;20.20;64.30;;;;;;4362051;28;658532;-73
2023/06/13 12:09:55;;;;;;;1.57;1.40;;;20.00;64.20;;;;;;4362266;28;658682;-73
2023/06/13 12:12:43;;;;;;;4.33;1.40;;;20.00;62.50;;;;;;4380588;28;659390;-74
2023/06/13 12:15:30;;;;;;;3.20;1.70;;;20.10;63.90;;;;;;4357231;28;657628;-72
2023/06/13 12:18:17;;;;;;;2.20;1.43;;;20.20;67.00;;;;;;4379559;28;657887;-74
2023/06/13 12:21:05;;;;;;;3.43;1.57;;;20.60;67.20;;;;;;4384104;28;657150;-72
2023/06/13 12:23:54;;;;;;;2.50;1.20;;;21.20;64.30;;;;;;4397359;27;658447;-73
2023/06/13 12:26:43;;;;;;;2.40;1.17;;;21.60;62.10;;;;;;4354837;28;657459;-73
2023/06/13 12:29:34;;;;;;;2.83;1.30;;;21.70;62.90;;;;;;4361909;28;657826;-73
2023/06/13 12:32:25;;;;;;;2.60;1.37;;;21.90;61.00;;;;;;4358369;28;657564;-74
2023/06/13 12:35:12;;;;;;;1.53;1.30;;;21.90;60.30;;;;;;4371233;27;658438;-72
2023/06/13 12:38:01;;;;;;;3.07;1.50;;;22.30;60.80;;;;;;4392857;28;657447;-73
2023/06/13 12:40:51;;;;;;;4.20;1.17;;;22.10;57.90;;;;;;4359988;28;657933;-73
2023/06/13 12:43:41;;;;;;;1.77;1.20;;;22.20;56.90;;;;;;4359727;28;657952;-73
2023/06/13 12:46:29;;;;;;;2.80;1.10;;;21.90;57.10;;;;;;4355135;28;658152;-72
2023/06/13 12:49:19;;;;;;;1.90;1.33;;;22.00;59.50;;;;;;4375865;27;657107;-72
2023/06/13 12:52:07;;;;;;;2.20;1.17;;;21.80;56.70;;;;;;4374912;27;657867;-72
2023/06/13 12:54:54;;;;;;;2.40;1.23;;;21.20;57.40;;;;;;4389597;28;657759;-73
2023/06/13 12:57:43;;;;;;;2.50;1.40;;;21.00;57.40;;;;;;4369100;28;658233;-73
2023/06/13 13:00:30;;;;;;;6.33;1.30;;;20.60;58.20;;;;;;4366797;28;657424;-72
2023/06/13 13:03:18;;;;;;;1.63;1.13;;;20.30;58.50;;;;;;4399014;27;657752;-72
2023/06/13 13:06:05;;;;;;;3.33;1.30;;;20.20;61.40;;;;;;4371891;28;658008;-72
2023/06/13 13:08:54;;;;;;;1.20;1.10;;;20.80;61.90;;;;;;4381137;28;658364;-73
2023/06/13 13:11:41;;;;;;;1.80;1.27;;;21.60;59.50;;;;;;4388058;27;658601;-73
2023/06/13 13:14:30;;;;;;;1.50;1.30;;;22.50;58.20;;;;;;4402949;27;657835;-73
2023/06/13 13:17:17;;;;;;;2.10;1.03;;;23.00;54.70;;;;;;4355205;28;658033;-73
2023/06/13 13:20:06;;;;;;;3.93;1.07;;;23.10;55.40;;;;;;4374375;28;658047;-73
2023/06/13 13:22:54;;;;;;;1.73;1.10;;;23.30;53.40;;;;;;4384833;27;658967;-73
2023/06/13 13:25:41;;;;;;;1.20;1.10;;;22.70;53.30;;;;;;4359571;28;657575;-72
2023/06/13 13:28:28;;;;;;;1.23;0.80;;;21.50;54.60;;;;;;4372639;28;657621;-73
2023/06/13 13:31:17;;;;;;;1.90;1.30;;;21.50;55.90;;;;;;4359063;28;657845;-72
2023/06/13 13:34:05;;;;;;;2.87;1.33;;;22.10;56.20;;;;;;4382106;28;658042;-73
2023/06/13 13:36:52;;;;;;;2.77;1.10;;;22.10;53.20;;;;;;4357890;28;658106;-73
2023/06/13 13:39:39;;;;;;;1.23;1.00;;;22.30;53.10;;;;;;4388973;28;658101;-73
2023/06/13 13:42:27;;;;;;;5.80;1.43;;;22.70;52.70;;;;;;4367514;28;657879;-73
2023/06/13 13:45:14;;;;;;;2.90;1.40;;;22.30;52.00;;;;;;4386968;28;657376;-73
2023/06/13 13:48:03;;;;;;;2.10;1.20;;;21.90;51.80;;;;;;4361127;28;657495;-73
2023/06/13 13:50:50;;;;;;;2.13;1.30;;;21.80;53.20;;;;;;4365355;28;657833;-73
2023/06/13 13:53:38;;;;;;;2.43;1.20;;;21.80;54.60;;;;;;4385771;28;658448;-74
2023/06/13 13:56:26;;;;;;;2.90;1.27;;;22.10;56.10;;;;;;4366729;28;657931;-73
2023/06/13 13:59:13;;;;;;;2.13;1.33;;;22.60;55.20;;;;;;4387243;28;658794;-73
2023/06/13 14:02:00;;;;;;;2.90;1.10;;;23.00;55.20;;;;;;4360332;28;659799;-73
2023/06/13 14:04:49;;;;;;;2.93;1.43;;;23.20;52.80;;;;;;4399187;27;657934;-73
2023/06/13 14:07:36;;;;;;;1.47;1.37;;;22.90;51.20;;;;;;4370398;28;657762;-73
2023/06/13 14:10:24;;;;;;;4.17;1.43;;;23.10;53.10;;;;;;4378861;28;657670;-74
2023/06/13 14:13:12;;;;;;;2.37;1.40;;;23.40;52.60;;;;;;4362026;28;657970;-73
2023/06/13 14:16:00;;;;;;;1.60;1.30;;;22.80;52.70;;;;;;4379319;28;658844;-73
2023/06/13 14:18:48;;;;;;;2.00;1.50;;;22.90;52.20;;;;;;4375345;28;657981;-73
2023/06/13 14:21:37;;;;;;;1.90;1.40;;;23.10;52.00;;;;;;4374086;28;657808;-73
2023/06/13 14:24:24;;;;;;;1.60;1.30;;;22.80;51.90;;;;;;4282792;28;658456;-73
2023/06/13 14:27:12;;;;;;;2.27;1.00;;;22.30;51.70;;;;;;4239335;28;657570;-73
2023/06/13 14:29:59;;;;;;;2.30;1.30;;;21.70;51.70;;;;;;4260723;28;657755;-72